sensor_id;sensor_type;location;lat;lon;timestamp;pressure;altitude;pressure_sealevel;temperature;humidity
13709;BME280;54933;51.908;7.730;2023-04-29T00:02:02;100532.28;;;21.31;69.65
13709;BME280;54933;51.908;7.730;2023-04-29T00:04:28;100533.13;;;21.31;69.93
13709;BME280;54933;51.908;7.730;2023-04-29T00:06:53;100536.91;;;21.30;69.86
13709;BME280;54933;51.908;7.730;2023-04-29T00:09:20;100538.53;;;21.31;69.96
13709;BME280;54933;51.908;7.730;2023-04-29T00:11:45;100535.59;;;21.33;69.84
13709;BME280;54933;51.908;7.730;2023-04-29T00:14:12;100534.78;;;21.32;69.70
13709;BME280;54933;51.908;7.730;2023-04-29T00:16:37;100541.84;;;21.33;69.69
13709;BME280;54933;51.908;7.730;2023-04-29T00:19:02;100541.84;;;21.33;69.63
13709;BME280;54933;51.908;7.730;2023-04-29T00:21:28;100543.50;;;21.34;69.83
13709;BME280;54933;51.908;7.730;2023-04-29T00:23:53;100543.50;;;21.34;70.03
13709;BME280;54933;51.908;7.730;2023-04-29T00:26:18;100549.72;;;21.35;69.79
13709;BME280;54933;51.908;7.730;2023-04-29T00:28:43;100547.88;;;21.35;69.62
13709;BME280;54933;51.908;7.730;2023-04-29T00:31:09;100560.53;;;21.35;69.62
13709;BME280;54933;51.908;7.730;2023-04-29T00:33:34;100565.09;;;21.34;69.72
13709;BME280;54933;51.908;7.730;2023-04-29T00:36:00;100563.00;;;21.36;69.82
13709;BME280;54933;51.908;7.730;2023-04-29T00:38:26;100556.78;;;21.36;69.61
13709;BME280;54933;51.908;7.730;2023-04-29T00:40:51;100569.50;;;21.35;69.86
13709;BME280;54933;51.908;7.730;2023-04-29T00:43:17;100572.19;;;21.35;69.73
13709;BME280;54933;51.908;7.730;2023-04-29T00:45:42;100572.19;;;21.35;69.83
13709;BME280;54933;51.908;7.730;2023-04-29T00:48:08;100573.81;;;21.36;69.61
13709;BME280;54933;51.908;7.730;2023-04-29T00:50:33;100573.81;;;21.36;69.30
13709;BME280;54933;51.908;7.730;2023-04-29T00:52:59;100579.22;;;21.36;69.51
13709;BME280;54933;51.908;7.730;2023-04-29T00:55:25;100578.41;;;21.36;69.67
13709;BME280;54933;51.908;7.730;2023-04-29T00:57:51;100576.53;;;21.36;69.36
13709;BME280;54933;51.908;7.730;2023-04-29T01:00:17;100592.75;;;21.36;69.67
13709;BME280;54933;51.908;7.730;2023-04-29T01:02:43;100591.69;;;21.37;69.74
13709;BME280;54933;51.908;7.730;2023-04-29T01:05:10;100591.69;;;21.37;69.57
13709;BME280;54933;51.908;7.730;2023-04-29T01:07:54;100597.09;;;21.37;69.73
13709;BME280;54933;51.908;7.730;2023-04-29T01:10:53;100607.91;;;21.37;69.48
13709;BME280;54933;51.908;7.730;2023-04-29T01:13:42;100607.91;;;21.37;69.50
13709;BME280;54933;51.908;7.730;2023-04-29T01:16:11;100608.75;;;21.38;69.69
13709;BME280;54933;51.908;7.730;2023-04-29T01:18:45;100610.59;;;21.37;69.67
13709;BME280;54933;51.908;7.730;2023-04-29T01:21:12;100617.69;;;21.38;69.52
13709;BME280;54933;51.908;7.730;2023-04-29T01:23:38;100620.38;;;21.38;69.65
13709;BME280;54933;51.908;7.730;2023-04-29T01:26:03;100619.56;;;21.38;69.65
13709;BME280;54933;51.908;7.730;2023-04-29T01:32:03;100630.13;;;21.39;69.37
13709;BME280;54933;51.908;7.730;2023-04-29T01:34:41;100626.59;;;21.39;69.79
13709;BME280;54933;51.908;7.730;2023-04-29T01:39:55;100643.66;;;21.39;69.40
13709;BME280;54933;51.908;7.730;2023-04-29T01:42:28;100642.81;;;21.39;69.60
13709;BME280;54933;51.908;7.730;2023-04-29T01:44:56;100642.81;;;21.39;69.37
13709;BME280;54933;51.908;7.730;2023-04-29T01:47:24;100640.94;;;21.39;69.31
13709;BME280;54933;51.908;7.730;2023-04-29T01:49:51;100651.53;;;21.41;69.57
13709;BME280;54933;51.908;7.730;2023-04-29T01:52:16;100649.69;;;21.41;69.57
13709;BME280;54933;51.908;7.730;2023-04-29T01:54:41;100648.84;;;21.41;69.39
13709;BME280;54933;51.908;7.730;2023-04-29T01:57:07;100655.09;;;21.41;69.50
13709;BME280;54933;51.908;7.730;2023-04-29T01:59:32;100655.09;;;21.41;69.45
13709;BME280;54933;51.908;7.730;2023-04-29T02:01:57;100653.22;;;21.42;69.55
13709;BME280;54933;51.908;7.730;2023-04-29T02:04:24;100657.78;;;21.41;69.07
13709;BME280;54933;51.908;7.730;2023-04-29T02:06:49;100659.44;;;21.42;69.15
13709;BME280;54933;51.908;7.730;2023-04-29T02:09:15;100664.03;;;21.42;69.14
13709;BME280;54933;51.908;7.730;2023-04-29T02:11:40;100662.13;;;21.42;69.29
13709;BME280;54933;51.908;7.730;2023-04-29T02:14:06;100671.06;;;21.43;69.54
13709;BME280;54933;51.908;7.730;2023-04-29T02:16:31;100671.91;;;21.43;69.39
13709;BME280;54933;51.908;7.730;2023-04-29T02:18:56;100670.84;;;21.44;69.37
13709;BME280;54933;51.908;7.730;2023-04-29T02:21:22;100678.97;;;21.44;69.28
13709;BME280;54933;51.908;7.730;2023-04-29T02:23:47;100672.72;;;21.44;69.22
13709;BME280;54933;51.908;7.730;2023-04-29T02:26:12;100675.19;;;21.45;69.44
13709;BME280;54933;51.908;7.730;2023-04-29T02:28:39;100668.16;;;21.44;69.33
13709;BME280;54933;51.908;7.730;2023-04-29T02:31:04;100678.97;;;21.44;69.14
13709;BME280;54933;51.908;7.730;2023-04-29T02:33:30;100675.19;;;21.45;69.25
13709;BME280;54933;51.908;7.730;2023-04-29T02:35:55;100679.78;;;21.45;69.18
13709;BME280;54933;51.908;7.730;2023-04-29T02:38:21;100684.38;;;21.44;69.17
13709;BME280;54933;51.908;7.730;2023-04-29T02:40:46;100685.22;;;21.45;69.38
13709;BME280;54933;51.908;7.730;2023-04-29T02:43:12;100686.00;;;21.45;69.27
13709;BME280;54933;51.908;7.730;2023-04-29T02:45:37;100686.84;;;21.46;69.37
13709;BME280;54933;51.908;7.730;2023-04-29T02:48:06;100695.78;;;21.46;69.18
13709;BME280;54933;51.908;7.730;2023-04-29T02:50:31;100699.34;;;21.47;69.14
13709;BME280;54933;51.908;7.730;2023-04-29T02:52:57;100696.81;;;21.45;69.21
13709;BME280;54933;51.908;7.730;2023-04-29T02:55:22;100695.78;;;21.46;69.22
13709;BME280;54933;51.908;7.730;2023-04-29T02:57:47;100695.78;;;21.46;69.19
13709;BME280;54933;51.908;7.730;2023-04-29T03:00:12;100700.13;;;21.47;69.14
13709;BME280;54933;51.908;7.730;2023-04-29T03:02:38;100699.34;;;21.47;69.34
13709;BME280;54933;51.908;7.730;2023-04-29T03:05:04;100702.84;;;21.47;69.31
13709;BME280;54933;51.908;7.730;2023-04-29T03:07:30;100706.38;;;21.48;69.18
13709;BME280;54933;51.908;7.730;2023-04-29T03:09:55;100701.81;;;21.48;69.27
13709;BME280;54933;51.908;7.730;2023-04-29T03:12:21;100708.25;;;21.47;69.29
13709;BME280;54933;51.908;7.730;2023-04-29T03:14:46;100701.81;;;21.48;69.13
13709;BME280;54933;51.908;7.730;2023-04-29T03:17:12;100704.53;;;21.48;69.46
13709;BME280;54933;51.908;7.730;2023-04-29T03:19:37;100708.03;;;21.49;69.23
13709;BME280;54933;51.908;7.730;2023-04-29T03:22:02;100708.03;;;21.49;69.08
13709;BME280;54933;51.908;7.730;2023-04-29T03:24:28;100716.97;;;21.49;69.26
13709;BME280;54933;51.908;7.730;2023-04-29T03:26:53;100716.97;;;21.49;69.41
13709;BME280;54933;51.908;7.730;2023-04-29T03:29:18;100720.50;;;21.50;69.35
13709;BME280;54933;51.908;7.730;2023-04-29T03:31:44;100713.22;;;21.50;69.40
13709;BME280;54933;51.908;7.730;2023-04-29T03:34:09;100714.28;;;21.49;69.31
13709;BME280;54933;51.908;7.730;2023-04-29T03:36:35;100710.50;;;21.50;69.30
13709;BME280;54933;51.908;7.730;2023-04-29T03:39:00;100719.47;;;21.51;69.22
13709;BME280;54933;51.908;7.730;2023-04-29T03:41:26;100719.47;;;21.51;69.00
13709;BME280;54933;51.908;7.730;2023-04-29T03:43:51;100722.16;;;21.51;69.17
13709;BME280;54933;51.908;7.730;2023-04-29T03:46:16;100721.31;;;21.50;68.94
13709;BME280;54933;51.908;7.730;2023-04-29T03:48:42;100729.22;;;21.52;69.41
13709;BME280;54933;51.908;7.730;2023-04-29T03:51:07;100729.22;;;21.52;69.03
13709;BME280;54933;51.908;7.730;2023-04-29T03:53:33;100733.81;;;21.51;69.51
13709;BME280;54933;51.908;7.730;2023-04-29T03:55:59;100735.47;;;21.52;69.32
13709;BME280;54933;51.908;7.730;2023-04-29T03:58:24;100735.47;;;21.52;69.32
13709;BME280;54933;51.908;7.730;2023-04-29T04:00:49;100729.03;;;21.53;69.28
13709;BME280;54933;51.908;7.730;2023-04-29T04:03:15;100743.56;;;21.52;69.42
13709;BME280;54933;51.908;7.730;2023-04-29T04:05:40;100742.53;;;21.53;69.57
13709;BME280;54933;51.908;7.730;2023-04-29T04:08:05;100747.94;;;21.53;69.36
13709;BME280;54933;51.908;7.730;2023-04-29T04:10:31;100754.38;;;21.52;69.21
13709;BME280;54933;51.908;7.730;2023-04-29T04:12:56;100751.44;;;21.54;69.39
13709;BME280;54933;51.908;7.730;2023-04-29T04:15:21;100756.06;;;21.53;68.99
13709;BME280;54933;51.908;7.730;2023-04-29T04:17:47;100763.09;;;21.54;68.87
13709;BME280;54933;51.908;7.730;2023-04-29T04:20:12;100760.41;;;21.54;69.16
13709;BME280;54933;51.908;7.730;2023-04-29T04:22:38;100759.56;;;21.54;69.30
13709;BME280;54933;51.908;7.730;2023-04-29T04:25:03;100764.97;;;21.54;68.99
13709;BME280;54933;51.908;7.730;2023-04-29T04:27:29;100771.22;;;21.54;69.13
13709;BME280;54933;51.908;7.730;2023-04-29T04:29:54;100773.91;;;21.54;69.09
13709;BME280;54933;51.908;7.730;2023-04-29T04:32:21;100779.09;;;21.56;69.11
13709;BME280;54933;51.908;7.730;2023-04-29T04:34:46;100783.69;;;21.55;69.01
13709;BME280;54933;51.908;7.730;2023-04-29T04:37:12;100778.28;;;21.55;69.22
13709;BME280;54933;51.908;7.730;2023-04-29T04:39:38;100785.34;;;21.57;69.67
13709;BME280;54933;51.908;7.730;2023-04-29T04:42:03;100785.34;;;21.57;69.20
13709;BME280;54933;51.908;7.730;2023-04-29T04:44:29;100783.69;;;21.55;69.07
13709;BME280;54933;51.908;7.730;2023-04-29T04:46:54;100801.56;;;21.57;69.15
13709;BME280;54933;51.908;7.730;2023-04-29T04:49:22;100804.28;;;21.57;69.25
13709;BME280;54933;51.908;7.730;2023-04-29T04:51:48;100802.38;;;21.57;68.95
13709;BME280;54933;51.908;7.730;2023-04-29T04:54:14;100814.03;;;21.58;69.17
13709;BME280;54933;51.908;7.730;2023-04-29T04:56:39;100814.03;;;21.58;68.89
13709;BME280;54933;51.908;7.730;2023-04-29T04:59:04;100814.03;;;21.58;69.21
13709;BME280;54933;51.908;7.730;2023-04-29T05:01:29;100820.28;;;21.58;69.13
13709;BME280;54933;51.908;7.730;2023-04-29T05:03:55;100826.50;;;21.58;69.10
13709;BME280;54933;51.908;7.730;2023-04-29T05:06:20;100825.53;;;21.53;68.78
13709;BME280;54933;51.908;7.730;2023-04-29T05:08:45;100826.19;;;21.48;68.75
13709;BME280;54933;51.908;7.730;2023-04-29T05:11:15;100827.22;;;21.47;68.71
13709;BME280;54933;51.908;7.730;2023-04-29T05:13:41;100829.91;;;21.47;68.65
13709;BME280;54933;51.908;7.730;2023-04-29T05:16:06;100826.41;;;21.47;69.19
13709;BME280;54933;51.908;7.730;2023-04-29T05:18:31;100832.84;;;21.46;69.01
13709;BME280;54933;51.908;7.730;2023-04-29T05:20:57;100832.84;;;21.46;69.10
13709;BME280;54933;51.908;7.730;2023-04-29T05:23:23;100840.09;;;21.45;69.01
13709;BME280;54933;51.908;7.730;2023-04-29T05:25:49;100840.31;;;21.44;69.04
13709;BME280;54933;51.908;7.730;2023-04-29T05:28:14;100840.31;;;21.44;68.89
13709;BME280;54933;51.908;7.730;2023-04-29T05:30:39;100847.63;;;21.43;69.12
13709;BME280;54933;51.908;7.730;2023-04-29T05:33:05;100853.03;;;21.43;68.93
13709;BME280;54933;51.908;7.730;2023-04-29T05:35:30;100850.34;;;21.43;69.24
13709;BME280;54933;51.908;7.730;2023-04-29T05:37:56;100855.75;;;21.43;69.05
13709;BME280;54933;51.908;7.730;2023-04-29T05:40:21;100853.84;;;21.44;69.19
13709;BME280;54933;51.908;7.730;2023-04-29T05:42:47;100860.31;;;21.43;69.04
13709;BME280;54933;51.908;7.730;2023-04-29T05:45:13;100857.38;;;21.44;68.99
13709;BME280;54933;51.908;7.730;2023-04-29T05:47:38;100869.84;;;21.45;69.02
13709;BME280;54933;51.908;7.730;2023-04-29T05:50:04;100875.88;;;21.47;68.51
13709;BME280;54933;51.908;7.730;2023-04-29T05:52:29;100877.78;;;21.47;69.05
13709;BME280;54933;51.908;7.730;2023-04-29T05:54:54;100881.28;;;21.47;68.95
13709;BME280;54933;51.908;7.730;2023-04-29T05:57:20;100888.38;;;21.48;68.92
13709;BME280;54933;51.908;7.730;2023-04-29T05:59:45;100886.47;;;21.49;69.15
13709;BME280;54933;51.908;7.730;2023-04-29T06:02:11;100892.72;;;21.49;68.83
13709;BME280;54933;51.908;7.730;2023-04-29T06:04:36;100888.16;;;21.50;68.81
13709;BME280;54933;51.908;7.730;2023-04-29T06:07:02;100894.34;;;21.50;68.75
13709;BME280;54933;51.908;7.730;2023-04-29T06:09:29;100893.34;;;21.51;68.81
13709;BME280;54933;51.908;7.730;2023-04-29T06:11:54;100901.44;;;21.51;68.74
13709;BME280;54933;51.908;7.730;2023-04-29T06:14:20;100906.63;;;21.53;68.86
13709;BME280;54933;51.908;7.730;2023-04-29T06:16:45;100913.91;;;21.52;68.79
13709;BME280;54933;51.908;7.730;2023-04-29T06:19:11;100916.47;;;21.41;68.04
13709;BME280;54933;51.908;7.730;2023-04-29T06:21:37;100923.13;;;21.45;68.06
13709;BME280;54933;51.908;7.730;2023-04-29T06:24:02;100925.59;;;21.46;68.32
13709;BME280;54933;51.908;7.730;2023-04-29T06:26:28;100924.53;;;21.47;68.36
13709;BME280;54933;51.908;7.730;2023-04-29T06:28:53;100934.31;;;21.48;68.33
13709;BME280;54933;51.908;7.730;2023-04-29T06:31:19;100940.56;;;21.42;68.24
13709;BME280;54933;51.908;7.730;2023-04-29T06:33:44;100937.66;;;21.44;68.26
13709;BME280;54933;51.908;7.730;2023-04-29T06:36:10;100936.84;;;21.43;68.33
13709;BME280;54933;51.908;7.730;2023-04-29T06:38:36;100950.31;;;20.99;68.00
13709;BME280;54933;51.908;7.730;2023-04-29T06:41:01;100958.66;;;20.78;67.14
13709;BME280;54933;51.908;7.730;2023-04-29T06:43:27;100964.38;;;19.84;66.00
13709;BME280;54933;51.908;7.730;2023-04-29T06:45:52;100965.53;;;20.42;66.57
13709;BME280;54933;51.908;7.730;2023-04-29T06:48:17;100964.06;;;20.78;67.44
13709;BME280;54933;51.908;7.730;2023-04-29T06:50:53;100964.84;;;20.98;67.72
13709;BME280;54933;51.908;7.730;2023-04-29T06:53:20;100964.22;;;21.09;68.04
13709;BME280;54933;51.908;7.730;2023-04-29T06:55:45;100974.84;;;20.91;67.96
13709;BME280;54933;51.908;7.730;2023-04-29T06:58:14;100980.44;;;21.09;67.75
13709;BME280;54933;51.908;7.730;2023-04-29T07:00:43;100984.56;;;21.18;68.02
13709;BME280;54933;51.908;7.730;2023-04-29T07:03:09;100990.16;;;21.23;68.11
13709;BME280;54933;51.908;7.730;2023-04-29T07:05:35;100989.72;;;21.26;68.79
13709;BME280;54933;51.908;7.730;2023-04-29T07:08:01;100994.69;;;21.29;68.82
13709;BME280;54933;51.908;7.730;2023-04-29T07:10:26;100997.19;;;21.31;68.98
13709;BME280;54933;51.908;7.730;2023-04-29T07:12:52;101005.91;;;21.33;68.97
13709;BME280;54933;51.908;7.730;2023-04-29T07:15:17;101005.69;;;21.34;69.25
13709;BME280;54933;51.908;7.730;2023-04-29T07:17:43;101009.25;;;21.35;69.24
13709;BME280;54933;51.908;7.730;2023-04-29T07:20:08;101017.13;;;21.36;69.16
13709;BME280;54933;51.908;7.730;2023-04-29T07:22:34;101011.72;;;21.36;69.48
13709;BME280;54933;51.908;7.730;2023-04-29T07:24:59;101020.34;;;20.81;68.69
13709;BME280;54933;51.908;7.730;2023-04-29T07:27:25;101025.97;;;20.67;66.94
13709;BME280;54933;51.908;7.730;2023-04-29T07:29:50;101035.47;;;20.95;67.41
13709;BME280;54933;51.908;7.730;2023-04-29T07:32:16;101021.19;;;21.08;67.98
13709;BME280;54933;51.908;7.730;2023-04-29T07:34:41;101030.06;;;21.15;68.08
13709;BME280;54933;51.908;7.730;2023-04-29T07:37:07;101040.88;;;21.21;68.00
13709;BME280;54933;51.908;7.730;2023-04-29T07:39:32;101044.41;;;21.22;68.13
13709;BME280;54933;51.908;7.730;2023-04-29T07:41:59;101043.78;;;21.26;68.06
13709;BME280;54933;51.908;7.730;2023-04-29T07:44:24;101054.16;;;21.29;68.19
13709;BME280;54933;51.908;7.730;2023-04-29T07:46:50;101055.84;;;21.30;68.14
13709;BME280;54933;51.908;7.730;2023-04-29T07:49:15;101060.41;;;21.30;68.02
13709;BME280;54933;51.908;7.730;2023-04-29T07:51:40;101066.66;;;21.30;67.94
13709;BME280;54933;51.908;7.730;2023-04-29T07:54:06;101061.25;;;21.30;68.29
13709;BME280;54933;51.908;7.730;2023-04-29T07:56:31;101070.16;;;21.31;67.93
13709;BME280;54933;51.908;7.730;2023-04-29T07:58:58;101069.94;;;21.32;68.22
13709;BME280;54933;51.908;7.730;2023-04-29T08:01:24;101077.03;;;21.33;68.17
13709;BME280;54933;51.908;7.730;2023-04-29T08:03:49;101082.91;;;21.04;67.95
13709;BME280;54933;51.908;7.730;2023-04-29T08:06:14;101099.94;;;19.58;66.10
13709;BME280;54933;51.908;7.730;2023-04-29T08:08:39;101104.00;;;19.41;66.20
13709;BME280;54933;51.908;7.730;2023-04-29T08:11:05;101104.63;;;19.84;66.43
13709;BME280;54933;51.908;7.730;2023-04-29T08:13:30;101102.72;;;20.25;66.13
13709;BME280;54933;51.908;7.730;2023-04-29T08:15:56;101102.59;;;20.59;66.08
13709;BME280;54933;51.908;7.730;2023-04-29T08:18:21;101109.91;;;20.78;66.09
13709;BME280;54933;51.908;7.730;2023-04-29T08:20:47;101103.22;;;20.87;66.01
13709;BME280;54933;51.908;7.730;2023-04-29T08:23:13;101108.22;;;20.77;65.91
13709;BME280;54933;51.908;7.730;2023-04-29T08:25:42;101103.97;;;20.16;64.57
13709;BME280;54933;51.908;7.730;2023-04-29T08:28:08;101115.25;;;20.52;64.64
13709;BME280;54933;51.908;7.730;2023-04-29T08:30:36;101113.19;;;20.67;64.68
13709;BME280;54933;51.908;7.730;2023-04-29T08:33:02;101126.69;;;20.80;64.81
13709;BME280;54933;51.908;7.730;2023-04-29T08:35:27;101114.66;;;20.89;64.91
13709;BME280;54933;51.908;7.730;2023-04-29T08:37:52;101113.81;;;20.95;64.93
13709;BME280;54933;51.908;7.730;2023-04-29T08:40:18;101122.38;;;20.99;64.73
13709;BME280;54933;51.908;7.730;2023-04-29T08:42:44;101125.50;;;21.02;64.89
13709;BME280;54933;51.908;7.730;2023-04-29T08:45:09;101127.78;;;21.05;64.88
13709;BME280;54933;51.908;7.730;2023-04-29T08:47:36;101119.47;;;21.07;65.02
13709;BME280;54933;51.908;7.730;2023-04-29T08:50:03;101127.38;;;21.08;65.23
13709;BME280;54933;51.908;7.730;2023-04-29T08:52:30;101135.25;;;21.10;65.58
13709;BME280;54933;51.908;7.730;2023-04-29T08:54:56;101143.16;;;21.11;65.44
13709;BME280;54933;51.908;7.730;2023-04-29T08:57:26;101146.69;;;21.12;65.59
13709;BME280;54933;51.908;7.730;2023-04-29T08:59:52;101145.84;;;21.11;65.66
13709;BME280;54933;51.908;7.730;2023-04-29T09:02:18;101147.53;;;21.12;65.85
13709;BME280;54933;51.908;7.730;2023-04-29T09:04:59;101148.16;;;21.14;65.84
13709;BME280;54933;51.908;7.730;2023-04-29T09:07:25;101151.91;;;21.13;65.86
13709;BME280;54933;51.908;7.730;2023-04-29T09:09:51;101145.47;;;21.14;65.92
13709;BME280;54933;51.908;7.730;2023-04-29T09:12:17;101144.41;;;21.15;66.08
13709;BME280;54933;51.908;7.730;2023-04-29T09:14:42;101151.47;;;21.16;65.96
13709;BME280;54933;51.908;7.730;2023-04-29T09:17:08;101153.16;;;21.17;65.91
13709;BME280;54933;51.908;7.730;2023-04-29T09:19:35;101155.84;;;21.17;66.56
13709;BME280;54933;51.908;7.730;2023-04-29T09:22:01;101161.25;;;21.17;66.46
13709;BME280;54933;51.908;7.730;2023-04-29T09:24:28;101156.44;;;21.19;66.29
13709;BME280;54933;51.908;7.730;2023-04-29T09:26:54;101160.22;;;21.18;66.47
13709;BME280;54933;51.908;7.730;2023-04-29T09:29:20;101167.25;;;21.19;66.50
13709;BME280;54933;51.908;7.730;2023-04-29T09:31:46;101167.25;;;21.19;66.59
13709;BME280;54933;51.908;7.730;2023-04-29T09:34:12;101177.06;;;21.20;66.67
13709;BME280;54933;51.908;7.730;2023-04-29T09:36:48;101181.41;;;21.21;66.55
13709;BME280;54933;51.908;7.730;2023-04-29T09:39:18;101174.97;;;21.22;66.90
13709;BME280;54933;51.908;7.730;2023-04-29T09:44:23;101183.69;;;21.24;66.74
13709;BME280;54933;51.908;7.730;2023-04-29T09:47:06;101190.78;;;21.25;66.83
13709;BME280;54933;51.908;7.730;2023-04-29T09:49:37;101178.91;;;21.26;66.75
13709;BME280;54933;51.908;7.730;2023-04-29T09:52:09;101183.47;;;21.26;66.67
13709;BME280;54933;51.908;7.730;2023-04-29T09:54:35;101193.47;;;21.25;66.98
13709;BME280;54933;51.908;7.730;2023-04-29T09:57:03;101199.69;;;21.26;66.82
13709;BME280;54933;51.908;7.730;2023-04-29T09:59:32;101197.00;;;21.26;67.24
13709;BME280;54933;51.908;7.730;2023-04-29T10:02:06;101191.59;;;21.26;67.16
13709;BME280;54933;51.908;7.730;2023-04-29T10:04:34;101195.13;;;21.26;67.17
13709;BME280;54933;51.908;7.730;2023-04-29T10:06:59;101197.13;;;20.85;65.55
13709;BME280;54933;51.908;7.730;2023-04-29T10:09:25;101199.09;;;20.98;65.24
13709;BME280;54933;51.908;7.730;2023-04-29T10:11:51;101192.22;;;21.08;65.66
13709;BME280;54933;51.908;7.730;2023-04-29T10:14:19;101195.97;;;21.14;66.28
13709;BME280;54933;51.908;7.730;2023-04-29T10:16:47;101191.00;;;21.17;66.39
13709;BME280;54933;51.908;7.730;2023-04-29T10:19:34;101193.28;;;21.20;66.50
13709;BME280;54933;51.908;7.730;2023-04-29T10:22:08;101182.25;;;21.22;66.57
13709;BME280;54933;51.908;7.730;2023-04-29T10:24:36;101194.50;;;21.24;66.63
13709;BME280;54933;51.908;7.730;2023-04-29T10:27:02;101187.22;;;21.25;66.79
13709;BME280;54933;51.908;7.730;2023-04-29T10:29:33;101187.03;;;21.26;66.71
13709;BME280;54933;51.908;7.730;2023-04-29T10:31:59;101188.88;;;21.26;66.90
13709;BME280;54933;51.908;7.730;2023-04-29T10:34:25;101177.06;;;21.27;66.90
13709;BME280;54933;51.908;7.730;2023-04-29T10:36:50;101186.00;;;21.27;66.86
13709;BME280;54933;51.908;7.730;2023-04-29T10:39:23;101187.66;;;21.28;66.69
13709;BME280;54933;51.908;7.730;2023-04-29T10:41:51;101198.47;;;21.28;67.19
13709;BME280;54933;51.908;7.730;2023-04-29T10:44:17;101193.06;;;21.28;67.10
13709;BME280;54933;51.908;7.730;2023-04-29T10:46:43;101196.81;;;21.27;67.20
13709;BME280;54933;51.908;7.730;2023-04-29T10:49:09;101194.13;;;21.27;67.09
13709;BME280;54933;51.908;7.730;2023-04-29T10:51:40;101198.47;;;21.28;67.04
13709;BME280;54933;51.908;7.730;2023-04-29T10:54:08;101198.47;;;21.28;67.28
13709;BME280;54933;51.908;7.730;2023-04-29T10:56:47;101204.72;;;21.29;67.42
13709;BME280;54933;51.908;7.730;2023-04-29T10:59:19;101193.91;;;21.29;67.21
13709;BME280;54933;51.908;7.730;2023-04-29T11:04:12;101201.16;;;21.28;67.35
13709;BME280;54933;51.908;7.730;2023-04-29T11:06:40;101193.78;;;20.64;65.59
13709;BME280;54933;51.908;7.730;2023-04-29T11:14:29;101215.78;;;20.67;62.87
13709;BME280;54933;51.908;7.730;2023-04-29T11:17:00;101216.69;;;20.87;64.13
13709;BME280;54933;51.908;7.730;2023-04-29T11:19:40;101205.09;;;21.00;64.35
13709;BME280;54933;51.908;7.730;2023-04-29T11:27:33;101204.72;;;21.16;65.12
13709;BME280;54933;51.908;7.730;2023-04-29T11:30:00;101200.75;;;21.18;65.55
13709;BME280;54933;51.908;7.730;2023-04-29T11:32:29;101203.44;;;21.18;65.45
13709;BME280;54933;51.908;7.730;2023-04-29T11:35:06;101211.13;;;21.21;65.44
13709;BME280;54933;51.908;7.730;2023-04-29T11:37:31;101214.91;;;21.20;65.68
13709;BME280;54933;51.908;7.730;2023-04-29T11:39:58;101213.56;;;20.84;63.72
13709;BME280;54933;51.908;7.730;2023-04-29T11:42:25;101216.94;;;20.99;63.35
13709;BME280;54933;51.908;7.730;2023-04-29T11:44:51;101214.25;;;21.05;64.05
13709;BME280;54933;51.908;7.730;2023-04-29T11:47:18;101226.94;;;21.11;64.29
13709;BME280;54933;51.908;7.730;2023-04-29T11:49:43;101226.53;;;21.14;64.70
13709;BME280;54933;51.908;7.730;2023-04-29T11:52:08;101229.84;;;21.16;64.52
13709;BME280;54933;51.908;7.730;2023-04-29T11:54:34;101232.13;;;21.19;64.73
13709;BME280;54933;51.908;7.730;2023-04-29T11:56:59;101225.50;;;21.22;64.90
13709;BME280;54933;51.908;7.730;2023-04-29T11:59:26;101235.25;;;21.23;64.96
13709;BME280;54933;51.908;7.730;2023-04-29T12:01:51;101225.28;;;21.23;65.22
13709;BME280;54933;51.908;7.730;2023-04-29T12:04:17;101230.47;;;21.25;65.20
13709;BME280;54933;51.908;7.730;2023-04-29T12:06:43;101234.22;;;21.24;65.09
13709;BME280;54933;51.908;7.730;2023-04-29T12:09:09;101231.31;;;21.25;65.04
13709;BME280;54933;51.908;7.730;2023-04-29T12:11:35;101237.53;;;21.26;65.46
13709;BME280;54933;51.908;7.730;2023-04-29T12:14:01;101233.19;;;21.25;65.33
13709;BME280;54933;51.908;7.730;2023-04-29T12:16:33;101232.97;;;21.26;65.53
13709;BME280;54933;51.908;7.730;2023-04-29T12:18:59;101231.13;;;21.27;65.57
13709;BME280;54933;51.908;7.730;2023-04-29T12:21:25;101235.47;;;21.28;65.56
13709;BME280;54933;51.908;7.730;2023-04-29T12:23:52;101229.03;;;21.29;65.82
13709;BME280;54933;51.908;7.730;2023-04-29T12:26:17;101237.16;;;21.29;65.58
13709;BME280;54933;51.908;7.730;2023-04-29T12:28:45;101227.16;;;21.29;65.92
13709;BME280;54933;51.908;7.730;2023-04-29T12:31:13;101229.84;;;21.29;65.80
13709;BME280;54933;51.908;7.730;2023-04-29T12:33:42;101233.41;;;21.30;65.85
13709;BME280;54933;51.908;7.730;2023-04-29T12:36:17;101234.25;;;21.30;66.08
13709;BME280;54933;51.908;7.730;2023-04-29T12:38:42;101235.88;;;21.31;65.80
13709;BME280;54933;51.908;7.730;2023-04-29T12:41:07;101234.25;;;21.30;66.05
13709;BME280;54933;51.908;7.730;2023-04-29T12:43:33;101236.72;;;21.32;65.82
13709;BME280;54933;51.908;7.730;2023-04-29T12:46:03;101241.28;;;21.31;65.80
13709;BME280;54933;51.908;7.730;2023-04-29T12:48:30;101235.66;;;21.20;65.38
13709;BME280;54933;51.908;7.730;2023-04-29T12:50:59;101236.72;;;21.25;65.24
13709;BME280;54933;51.908;7.730;2023-04-29T12:53:25;101241.09;;;21.26;65.45
13709;BME280;54933;51.908;7.730;2023-04-29T12:55:52;101247.13;;;21.28;65.81
13709;BME280;54933;51.908;7.730;2023-04-29T12:58:17;101243.38;;;21.29;65.70
13709;BME280;54933;51.908;7.730;2023-04-29T13:00:43;101249.63;;;21.30;65.55
13709;BME280;54933;51.908;7.730;2023-04-29T13:03:08;101243.38;;;21.29;65.75
13709;BME280;54933;51.908;7.730;2023-04-29T13:05:34;101242.34;;;21.30;65.83
13709;BME280;54933;51.908;7.730;2023-04-29T13:07:59;101251.47;;;21.29;65.98
13709;BME280;54933;51.908;7.730;2023-04-29T13:10:25;101243.16;;;21.31;65.59